ZKROG NZAR-NZWU

Flight info

Callsign ZKROG
Flight time 1h 10m
Altitude 6500
Route NZAR NZWU
Aircraft C12/L-S/L

Departure

Time 2026-04-19 01:06
Airport Ardmore Airport (NZAR)

Arrival

Time 2026-04-19 02:16
Airport Wanganui Airport (NZWU)
Time Latitude Longitude Altitude Speed Heading
2026-04-19 01:06 -37.24903 174.91244 3267 ft 131 kts 191°
2026-04-19 01:06 -37.25806 174.91061 3393 ft 131 kts 192°
2026-04-19 01:06 -37.26708 174.90873 3506 ft 131 kts 192°
2026-04-19 01:07 -37.27638 174.90678 3520 ft 140 kts 191°
2026-04-19 01:07 -37.28601 174.90462 3527 ft 142 kts 191°
2026-04-19 01:07 -37.29584 174.90248 3523 ft 146 kts 192°
2026-04-19 01:07 -37.30592 174.90029 3528 ft 148 kts 192°
2026-04-19 01:08 -37.31584 174.89819 3534 ft 145 kts 192°
2026-04-19 01:08 -37.32576 174.89617 3521 ft 143 kts 193°
2026-04-19 01:08 -37.33563 174.89415 3565 ft 141 kts 193°
2026-04-19 01:08 -37.34531 174.89218 3661 ft 141 kts 191°
2026-04-19 01:09 -37.35499 174.89158 3754 ft 138 kts 181°
2026-04-19 01:09 -37.36444 174.89146 3849 ft 134 kts 182°
2026-04-19 01:09 -37.37374 174.89145 3953 ft 135 kts 181°
2026-04-19 01:09 -37.38317 174.89141 4049 ft 136 kts 182°
2026-04-19 01:10 -37.39266 174.89136 4160 ft 137 kts 182°
2026-04-19 01:10 -37.40235 174.89122 4262 ft 141 kts 183°
2026-04-19 01:10 -37.41204 174.89115 4364 ft 139 kts 182°
2026-04-19 01:10 -37.42156 174.89105 4465 ft 135 kts 182°
2026-04-19 01:11 -37.43090 174.89104 4567 ft 135 kts 182°
2026-04-19 01:11 -37.44028 174.89102 4666 ft 134 kts 182°
2026-04-19 01:11 -37.44969 174.89100 4763 ft 136 kts 182°
2026-04-19 01:11 -37.45916 174.89094 4866 ft 137 kts 182°
2026-04-19 01:12 -37.46873 174.89092 4957 ft 136 kts 182°
2026-04-19 01:12 -37.47793 174.89093 5059 ft 133 kts 183°
2026-04-19 01:12 -37.48730 174.89099 5153 ft 131 kts 183°
2026-04-19 01:12 -37.49623 174.89111 5245 ft 130 kts 182°
2026-04-19 01:13 -37.50528 174.89135 5349 ft 130 kts 182°
2026-04-19 01:13 -37.51451 174.89148 5451 ft 134 kts 183°
2026-04-19 01:13 -37.52387 174.89164 5551 ft 135 kts 182°
2026-04-19 01:13 -37.53303 174.89169 5657 ft 132 kts 183°
2026-04-19 01:14 -37.54221 174.89181 5750 ft 131 kts 183°
2026-04-19 01:14 -37.55130 174.89190 5862 ft 130 kts 184°
2026-04-19 01:14 -37.56040 174.89196 5953 ft 130 kts 183°
2026-04-19 01:14 -37.56967 174.89208 5991 ft 136 kts 183°
2026-04-19 01:15 -37.57936 174.89216 6009 ft 144 kts 182°
2026-04-19 01:15 -37.58948 174.89213 6010 ft 147 kts 184°
2026-04-19 01:15 -37.59983 174.89221 6006 ft 150 kts 182°
2026-04-19 01:15 -37.61019 174.89215 6005 ft 146 kts 184°
2026-04-19 01:16 -37.62004 174.89327 5998 ft 149 kts 173°
2026-04-19 01:16 -37.63021 174.89538 5998 ft 148 kts 173°
2026-04-19 01:16 -37.64042 174.89744 6006 ft 150 kts 173°
2026-04-19 01:16 -37.65074 174.89952 5994 ft 149 kts 173°
2026-04-19 01:17 -37.66095 174.90155 6002 ft 148 kts 173°
2026-04-19 01:17 -37.67105 174.90361 6001 ft 146 kts 173°
2026-04-19 01:17 -37.68111 174.90562 6008 ft 148 kts 174°
2026-04-19 01:17 -37.69113 174.90761 6004 ft 148 kts 173°
2026-04-19 01:18 -37.70142 174.90964 6005 ft 151 kts 174°
2026-04-19 01:18 -37.71180 174.91161 6008 ft 151 kts 176°
2026-04-19 01:18 -37.72211 174.91206 5996 ft 147 kts 183°
2026-04-19 01:18 -37.73238 174.91223 5996 ft 148 kts 182°
2026-04-19 01:19 -37.74270 174.91242 5993 ft 148 kts 182°
2026-04-19 01:19 -37.75299 174.91258 5990 ft 148 kts 182°
2026-04-19 01:19 -37.76322 174.91275 5989 ft 147 kts 183°
2026-04-19 01:19 -37.77359 174.91291 5994 ft 150 kts 182°
2026-04-19 01:20 -37.78382 174.91304 6006 ft 154 kts 183°
2026-04-19 01:20 -37.79480 174.91315 6000 ft 153 kts 183°
2026-04-19 01:20 -37.80542 174.91327 6009 ft 153 kts 182°
2026-04-19 01:20 -37.81607 174.91332 6002 ft 154 kts 183°
2026-04-19 01:21 -37.82686 174.91343 6004 ft 155 kts 183°
2026-04-19 01:21 -37.83770 174.91349 6002 ft 155 kts 183°
2026-04-19 01:21 -37.84840 174.91352 6006 ft 154 kts 183°
2026-04-19 01:21 -37.85909 174.91360 6002 ft 154 kts 183°
2026-04-19 01:22 -37.86979 174.91367 6004 ft 154 kts 183°
2026-04-19 01:22 -37.88052 174.91373 6000 ft 154 kts 183°
2026-04-19 01:22 -37.89106 174.91378 6003 ft 154 kts 184°
2026-04-19 01:22 -37.90178 174.91384 6000 ft 154 kts 183°
2026-04-19 01:23 -37.91254 174.91385 6001 ft 155 kts 183°
2026-04-19 01:23 -37.92340 174.91380 6001 ft 156 kts 184°
2026-04-19 01:23 -37.93432 174.91377 5992 ft 158 kts 184°
2026-04-19 01:23 -37.94516 174.91373 6004 ft 155 kts 184°
2026-04-19 01:24 -37.95598 174.91364 6002 ft 156 kts 183°
2026-04-19 01:24 -37.96694 174.91358 5997 ft 158 kts 184°
2026-04-19 01:24 -37.97792 174.91343 5998 ft 156 kts 184°
2026-04-19 01:24 -37.98884 174.91334 5990 ft 158 kts 183°
2026-04-19 01:25 -37.99978 174.91327 5994 ft 157 kts 184°
2026-04-19 01:25 -38.01065 174.91321 5989 ft 154 kts 184°
2026-04-19 01:25 -38.02122 174.91314 5992 ft 151 kts 184°
2026-04-19 01:25 -38.03174 174.91316 5987 ft 151 kts 184°
2026-04-19 01:26 -38.04219 174.91319 5991 ft 150 kts 183°
2026-04-19 01:26 -38.05280 174.91311 5986 ft 154 kts 184°
2026-04-19 01:26 -38.06352 174.91309 5990 ft 154 kts 184°
2026-04-19 01:26 -38.07421 174.91295 5988 ft 154 kts 184°
2026-04-19 01:27 -38.08489 174.91291 5989 ft 153 kts 184°
2026-04-19 01:27 -38.09559 174.91278 5987 ft 153 kts 184°
2026-04-19 01:27 -38.10609 174.91261 5982 ft 153 kts 184°
2026-04-19 01:27 -38.11679 174.91233 5990 ft 155 kts 184°
2026-04-19 01:28 -38.12769 174.91208 5993 ft 158 kts 184°
2026-04-19 01:28 -38.13860 174.91180 5988 ft 155 kts 184°
2026-04-19 01:28 -38.14933 174.91151 5988 ft 154 kts 184°
2026-04-19 01:28 -38.16000 174.91129 5989 ft 154 kts 184°
2026-04-19 01:29 -38.17066 174.91099 5989 ft 153 kts 184°
2026-04-19 01:29 -38.18128 174.91075 5986 ft 152 kts 184°
2026-04-19 01:29 -38.19183 174.91049 5986 ft 151 kts 185°
2026-04-19 01:29 -38.20246 174.91026 5986 ft 155 kts 184°
2026-04-19 01:30 -38.21334 174.90998 5993 ft 158 kts 185°
2026-04-19 01:30 -38.22433 174.90976 5978 ft 156 kts 184°
2026-04-19 01:30 -38.23508 174.90946 5983 ft 153 kts 184°
2026-04-19 01:30 -38.24568 174.90918 5979 ft 151 kts 185°
2026-04-19 01:31 -38.25623 174.90890 5989 ft 154 kts 184°
2026-04-19 01:31 -38.26714 174.90854 5989 ft 159 kts 185°
2026-04-19 01:31 -38.27793 174.90816 5989 ft 156 kts 185°
2026-04-19 01:31 -38.28877 174.90782 5994 ft 157 kts 185°
2026-04-19 01:32 -38.29967 174.90746 5985 ft 156 kts 184°
2026-04-19 01:32 -38.31045 174.90707 5982 ft 154 kts 185°
2026-04-19 01:32 -38.32115 174.90666 5987 ft 155 kts 185°
2026-04-19 01:32 -38.33194 174.90619 5984 ft 155 kts 185°
2026-04-19 01:33 -38.34280 174.90576 5982 ft 156 kts 185°
2026-04-19 01:33 -38.35360 174.90535 5984 ft 155 kts 185°
2026-04-19 01:33 -38.36440 174.90496 5983 ft 154 kts 184°
2026-04-19 01:33 -38.37508 174.90450 5979 ft 153 kts 185°
2026-04-19 01:34 -38.38580 174.90406 5982 ft 155 kts 185°
2026-04-19 01:34 -38.39657 174.90354 5986 ft 155 kts 185°
2026-04-19 01:34 -38.40735 174.90302 5976 ft 154 kts 185°
2026-04-19 01:34 -38.41796 174.90253 5979 ft 152 kts 185°
2026-04-19 01:35 -38.42842 174.90203 5978 ft 149 kts 185°
2026-04-19 01:35 -38.43893 174.90155 5977 ft 153 kts 185°
2026-04-19 01:35 -38.44937 174.90093 5976 ft 151 kts 185°
2026-04-19 01:35 -38.45990 174.90035 5983 ft 152 kts 185°
2026-04-19 01:36 -38.47057 174.89970 5985 ft 155 kts 185°
2026-04-19 01:36 -38.48134 174.89908 5981 ft 155 kts 185°
2026-04-19 01:36 -38.49208 174.89843 5982 ft 154 kts 185°
2026-04-19 01:36 -38.50276 174.89779 5976 ft 153 kts 185°
2026-04-19 01:37 -38.51342 174.89712 5979 ft 154 kts 185°
2026-04-19 01:37 -38.52409 174.89639 5978 ft 153 kts 185°
2026-04-19 01:37 -38.53469 174.89571 5978 ft 152 kts 186°
2026-04-19 01:37 -38.54526 174.89503 5982 ft 152 kts 186°
2026-04-19 01:38 -38.55584 174.89438 5976 ft 153 kts 185°
2026-04-19 01:38 -38.56637 174.89368 5974 ft 151 kts 186°
2026-04-19 01:38 -38.57682 174.89303 5975 ft 150 kts 186°
2026-04-19 01:38 -38.58717 174.89236 5975 ft 151 kts 186°
2026-04-19 01:39 -38.59767 174.89167 5977 ft 152 kts 185°
2026-04-19 01:39 -38.60825 174.89100 5977 ft 152 kts 186°
2026-04-19 01:39 -38.61876 174.89026 5978 ft 151 kts 186°
2026-04-19 01:39 -38.62933 174.88959 5980 ft 153 kts 186°
2026-04-19 01:40 -38.63998 174.88882 5982 ft 154 kts 186°
2026-04-19 01:40 -38.65070 174.88799 5979 ft 154 kts 186°
2026-04-19 01:40 -38.66144 174.88711 5972 ft 155 kts 186°
2026-04-19 01:40 -38.67215 174.88618 5971 ft 154 kts 186°
2026-04-19 01:41 -38.68283 174.88526 5974 ft 154 kts 186°
2026-04-19 01:41 -38.69353 174.88436 5982 ft 154 kts 186°
2026-04-19 01:41 -38.70423 174.88346 5973 ft 154 kts 185°
2026-04-19 01:41 -38.71470 174.88248 5969 ft 152 kts 186°
2026-04-19 01:42 -38.72545 174.88158 5976 ft 154 kts 186°
2026-04-19 01:42 -38.73606 174.88064 5973 ft 154 kts 186°
2026-04-19 01:42 -38.75717 174.87889 5969 ft 153 kts 187°
2026-04-19 01:43 -38.76778 174.87804 5971 ft 153 kts 186°
2026-04-19 01:43 -38.77840 174.87712 5975 ft 154 kts 186°
2026-04-19 01:43 -38.78908 174.87615 5972 ft 153 kts 186°
2026-04-19 01:43 -38.79977 174.87517 5974 ft 155 kts 186°
2026-04-19 01:44 -38.81050 174.87418 5974 ft 154 kts 187°
2026-04-19 01:44 -38.82119 174.87319 5964 ft 153 kts 187°
2026-04-19 01:44 -38.83182 174.87223 5972 ft 153 kts 186°
2026-04-19 01:44 -38.84244 174.87120 5968 ft 152 kts 186°
2026-04-19 01:45 -38.85303 174.87015 5972 ft 153 kts 186°
2026-04-19 01:45 -38.86366 174.86906 5965 ft 153 kts 187°
2026-04-19 01:45 -38.87425 174.86801 5968 ft 153 kts 187°
2026-04-19 01:45 -38.88481 174.86702 5964 ft 151 kts 187°
2026-04-19 01:46 -38.89527 174.86614 5972 ft 151 kts 186°
2026-04-19 01:46 -38.90565 174.86510 5973 ft 150 kts 187°
2026-04-19 01:46 -38.91613 174.86418 5968 ft 151 kts 187°
2026-04-19 01:46 -38.92674 174.86312 5976 ft 156 kts 187°
2026-04-19 01:47 -38.93759 174.86201 5973 ft 156 kts 187°
2026-04-19 01:47 -38.94850 174.86092 5969 ft 157 kts 187°
2026-04-19 01:47 -38.95934 174.85981 5974 ft 156 kts 187°
2026-04-19 01:47 -38.97019 174.85872 5975 ft 156 kts 187°
2026-04-19 01:48 -38.98098 174.85766 5968 ft 156 kts 187°
2026-04-19 01:48 -38.99172 174.85653 5973 ft 155 kts 187°
2026-04-19 01:48 -38.99883 174.85574 5968 ft 155 kts 187°
2026-04-19 01:48 -39.00945 174.85444 5899 ft 157 kts 188°
2026-04-19 01:49 -39.02044 174.85438 5803 ft 160 kts 170°
2026-04-19 01:49 -39.03125 174.85730 5735 ft 157 kts 168°
2026-04-19 01:49 -39.04199 174.86009 5656 ft 157 kts 168°
2026-04-19 01:49 -39.05254 174.86280 5574 ft 152 kts 168°
2026-04-19 01:50 -39.06297 174.86546 5491 ft 152 kts 168°
2026-04-19 01:50 -39.07342 174.86817 5420 ft 153 kts 168°
2026-04-19 01:50 -39.08391 174.87087 5333 ft 153 kts 168°
2026-04-19 01:50 -39.09431 174.87359 5269 ft 154 kts 168°
2026-04-19 01:51 -39.10485 174.87630 5194 ft 154 kts 168°
2026-04-19 01:51 -39.11538 174.87911 5117 ft 153 kts 168°
2026-04-19 01:51 -39.12569 174.88173 5042 ft 153 kts 169°
2026-04-19 01:51 -39.13617 174.88446 4973 ft 153 kts 168°
2026-04-19 01:52 -39.14645 174.88716 4972 ft 149 kts 169°
2026-04-19 01:52 -39.15662 174.88981 4972 ft 149 kts 169°
2026-04-19 01:52 -39.16678 174.89244 4966 ft 148 kts 168°
2026-04-19 01:52 -39.17692 174.89513 4971 ft 150 kts 169°
2026-04-19 01:53 -39.18714 174.89766 4972 ft 149 kts 168°
2026-04-19 01:53 -39.19738 174.90020 4965 ft 151 kts 167°
2026-04-19 01:53 -39.20760 174.90253 4966 ft 149 kts 169°
2026-04-19 01:53 -39.21774 174.90504 4964 ft 148 kts 168°
2026-04-19 01:54 -39.22782 174.90751 4964 ft 146 kts 169°
2026-04-19 01:54 -39.23769 174.90996 4972 ft 145 kts 169°
2026-04-19 01:54 -39.24771 174.91244 4968 ft 148 kts 168°
2026-04-19 01:54 -39.25776 174.91485 4970 ft 148 kts 169°
2026-04-19 01:55 -39.26779 174.91724 4959 ft 145 kts 169°
2026-04-19 01:55 -39.27760 174.91967 4963 ft 144 kts 169°
2026-04-19 01:55 -39.28750 174.92195 4966 ft 145 kts 169°
2026-04-19 01:55 -39.29747 174.92441 4976 ft 147 kts 169°
2026-04-19 01:56 -39.30764 174.92689 4971 ft 149 kts 170°
2026-04-19 01:56 -39.31777 174.92947 4969 ft 149 kts 168°
2026-04-19 01:56 -39.32803 174.93200 4966 ft 149 kts 169°
2026-04-19 01:56 -39.33825 174.93445 4973 ft 150 kts 169°
2026-04-19 01:57 -39.34859 174.93697 4961 ft 151 kts 169°
2026-04-19 01:57 -39.35886 174.93946 4961 ft 150 kts 169°
2026-04-19 01:57 -39.36913 174.94196 4963 ft 149 kts 169°
2026-04-19 01:57 -39.37906 174.94436 4951 ft 142 kts 172°
2026-04-19 01:58 -39.38856 174.94484 4963 ft 132 kts 180°
2026-04-19 01:58 -39.39775 174.94508 4951 ft 132 kts 180°
2026-04-19 01:58 -39.40674 174.94536 4947 ft 126 kts 179°
2026-04-19 01:58 -39.41533 174.94556 4956 ft 122 kts 179°
2026-04-19 01:59 -39.42370 174.94581 4954 ft 120 kts 179°
2026-04-19 01:59 -39.43201 174.94592 4956 ft 120 kts 180°
2026-04-19 01:59 -39.44040 174.94622 4958 ft 121 kts 179°
2026-04-19 01:59 -39.44870 174.94642 4964 ft 121 kts 180°
2026-04-19 02:00 -39.45712 174.94668 4946 ft 121 kts 180°
2026-04-19 02:00 -39.46540 174.94697 4955 ft 119 kts 180°
2026-04-19 02:00 -39.47362 174.94725 4953 ft 118 kts 180°
2026-04-19 02:00 -39.48190 174.94757 4962 ft 121 kts 179°
2026-04-19 02:01 -39.49030 174.94781 4944 ft 118 kts 181°
2026-04-19 02:01 -39.49836 174.94816 4960 ft 116 kts 180°
2026-04-19 02:01 -39.50650 174.94843 4960 ft 117 kts 180°
2026-04-19 02:01 -39.51498 174.94879 4951 ft 124 kts 179°
2026-04-19 02:02 -39.52361 174.94906 4968 ft 126 kts 180°
2026-04-19 02:02 -39.53256 174.94954 4944 ft 129 kts 179°
2026-04-19 02:02 -39.54125 174.94994 4980 ft 126 kts 181°
2026-04-19 02:02 -39.55018 174.95018 4958 ft 132 kts 180°
2026-04-19 02:03 -39.55926 174.95032 4974 ft 130 kts 179°
2026-04-19 02:03 -39.56868 174.95051 4921 ft 139 kts 181°
2026-04-19 02:03 -39.57826 174.95078 4802 ft 136 kts 178°
2026-04-19 02:03 -39.58769 174.95088 4693 ft 134 kts 181°
2026-04-19 02:04 -39.59695 174.95110 4597 ft 132 kts 180°
2026-04-19 02:04 -39.60608 174.95131 4497 ft 129 kts 180°
2026-04-19 02:04 -39.61518 174.95136 4391 ft 132 kts 180°
2026-04-19 02:04 -39.62427 174.95141 4305 ft 129 kts 182°
2026-04-19 02:05 -39.63344 174.95156 4202 ft 132 kts 180°
2026-04-19 02:05 -39.64250 174.95178 4094 ft 129 kts 180°
2026-04-19 02:05 -39.65159 174.95200 3988 ft 133 kts 181°
2026-04-19 02:05 -39.66066 174.95223 3889 ft 129 kts 181°
2026-04-19 02:06 -39.66957 174.95250 3791 ft 131 kts 180°
2026-04-19 02:06 -39.67865 174.95281 3687 ft 131 kts 180°
2026-04-19 02:06 -39.68769 174.95305 3580 ft 128 kts 181°
2026-04-19 02:06 -39.69646 174.95336 3464 ft 126 kts 180°
2026-04-19 02:07 -39.70536 174.95358 3384 ft 128 kts 180°
2026-04-19 02:07 -39.71459 174.95379 3279 ft 139 kts 181°
2026-04-19 02:07 -39.72462 174.95396 3233 ft 148 kts 180°
2026-04-19 02:07 -39.73505 174.95412 3144 ft 152 kts 179°
2026-04-19 02:08 -39.74601 174.95409 3059 ft 161 kts 181°
2026-04-19 02:08 -39.75724 174.95416 2968 ft 158 kts 182°
2026-04-19 02:08 -39.76800 174.95417 2991 ft 150 kts 182°
2026-04-19 02:08 -39.77850 174.95433 2941 ft 153 kts 181°
2026-04-19 02:09 -39.78925 174.95448 2858 ft 158 kts 181°
2026-04-19 02:09 -39.80050 174.95467 2749 ft 162 kts 181°
2026-04-19 02:09 -39.81176 174.95493 2631 ft 161 kts 180°
2026-04-19 02:09 -39.82278 174.95520 2515 ft 157 kts 181°
2026-04-19 02:10 -39.83370 174.95550 2363 ft 160 kts 181°
2026-04-19 02:10 -39.84479 174.95580 2221 ft 159 kts 182°
2026-04-19 02:10 -39.85589 174.95616 2086 ft 161 kts 180°
2026-04-19 02:10 -39.86714 174.95641 1943 ft 162 kts 181°
2026-04-19 02:11 -39.87831 174.95661 1810 ft 162 kts 181°
2026-04-19 02:11 -39.88966 174.95674 1681 ft 160 kts 181°
2026-04-19 02:11 -39.90058 174.95699 1551 ft 158 kts 181°
2026-04-19 02:11 -39.91121 174.95947 1502 ft 151 kts 171°
2026-04-19 02:12 -39.92138 174.96200 1502 ft 149 kts 171°
2026-04-19 02:12 -39.93154 174.96443 1486 ft 145 kts 172°
2026-04-19 02:12 -39.94136 174.96674 1488 ft 143 kts 171°
2026-04-19 02:12 -39.95115 174.96911 1367 ft 141 kts 171°
2026-04-19 02:13 -39.96078 174.97137 1227 ft 136 kts 171°
2026-04-19 02:13 -39.96943 174.97338 1104 ft 118 kts 173°
2026-04-19 02:13 -39.97684 174.97532 1096 ft 102 kts 172°
2026-04-19 02:13 -39.98354 174.97708 1088 ft 94 kts 174°
2026-04-19 02:14 -39.98975 174.97873 1079 ft 87 kts 169°
2026-04-19 02:14 -39.99265 174.98448 1096 ft 90 kts 74°
2026-04-19 02:14 -39.99213 174.99352 1122 ft 112 kts 85°
2026-04-19 02:14 -39.99144 175.00462 1111 ft 129 kts 78°
2026-04-19 02:15 -39.99130 175.01666 1000 ft 126 kts 80°
2026-04-19 02:15 -39.98788 175.02524 833 ft 101 kts 44°
2026-04-19 02:15 -39.98261 175.03072 613 ft 91 kts 20°
2026-04-19 02:15 -39.97698 175.03141 406 ft 71 kts 330°
2026-04-19 02:16 -39.97289 175.02831 244 ft 67 kts 330°
2026-04-19 02:16 -39.96875 175.02598 104 ft 64 kts 333°
2026-04-19 02:16 -39.96505 175.02383 26 ft 46 kts 332°
2026-04-19 02:16 -39.96273 175.02263 21 ft 28 kts 341°
2026-04-19 02:17 -39.96220 175.02246 21 ft 0 kts 126°
2026-04-19 02:17 -39.96237 175.02275 22 ft 6 kts 148°
2026-04-19 02:17 -39.96207 175.02337 22 ft 17 kts 39°
2026-04-19 02:17 -39.96149 175.02403 22 ft 5 kts 113°
2026-04-19 02:18 -39.96154 175.02412 22 ft 1 kts 146°
2026-04-19 02:18 -39.96176 175.02411 22 ft 2 kts 134°
2026-04-19 02:18 -39.96207 175.02483 23 ft 15 kts 120°
2026-04-19 02:18 -39.96209 175.02540 23 ft 1 kts 298°
2026-04-19 02:19 -39.96207 175.02537 23 ft 0 kts 303°